sensor_id;sensor_type;location;lat;lon;timestamp;P1;durP1;ratioP1;P2;durP2;ratioP2
18140;SDS011;9196;49.194;12.526;2022-09-09T00:01:37;2.33;;;2.20;;
18140;SDS011;9196;49.194;12.526;2022-09-09T00:04:19;2.03;;;1.93;;
18140;SDS011;9196;49.194;12.526;2022-09-09T00:06:55;5.23;;;2.37;;
18140;SDS011;9196;49.194;12.526;2022-09-09T00:09:28;2.93;;;2.70;;
18140;SDS011;9196;49.194;12.526;2022-09-09T00:11:58;3.13;;;2.70;;
18140;SDS011;9196;49.194;12.526;2022-09-09T00:14:34;6.43;;;2.90;;
18140;SDS011;9196;49.194;12.526;2022-09-09T00:17:08;6.80;;;2.23;;
18140;SDS011;9196;49.194;12.526;2022-09-09T00:19:41;6.10;;;2.20;;
18140;SDS011;9196;49.194;12.526;2022-09-09T00:22:16;3.40;;;3.10;;
18140;SDS011;9196;49.194;12.526;2022-09-09T00:24:46;2.60;;;2.33;;
18140;SDS011;9196;49.194;12.526;2022-09-09T00:27:16;3.20;;;2.10;;
18140;SDS011;9196;49.194;12.526;2022-09-09T00:29:51;8.90;;;2.47;;
18140;SDS011;9196;49.194;12.526;2022-09-09T00:32:21;1.90;;;1.80;;
18140;SDS011;9196;49.194;12.526;2022-09-09T00:34:54;1.90;;;1.80;;
18140;SDS011;9196;49.194;12.526;2022-09-09T00:37:25;2.40;;;1.97;;
18140;SDS011;9196;49.194;12.526;2022-09-09T00:39:57;2.13;;;2.03;;
18140;SDS011;9196;49.194;12.526;2022-09-09T00:42:30;5.63;;;2.30;;
18140;SDS011;9196;49.194;12.526;2022-09-09T00:45:08;2.97;;;1.80;;
18140;SDS011;9196;49.194;12.526;2022-09-09T00:47:45;3.37;;;1.83;;
18140;SDS011;9196;49.194;12.526;2022-09-09T00:50:24;6.87;;;2.20;;
18140;SDS011;9196;49.194;12.526;2022-09-09T00:53:16;1.93;;;1.83;;
18140;SDS011;9196;49.194;12.526;2022-09-09T00:55:57;5.30;;;2.20;;
18140;SDS011;9196;49.194;12.526;2022-09-09T00:58:31;3.07;;;2.23;;
18140;SDS011;9196;49.194;12.526;2022-09-09T01:01:00;2.20;;;2.10;;
18140;SDS011;9196;49.194;12.526;2022-09-09T01:03:34;6.03;;;2.40;;
18140;SDS011;9196;49.194;12.526;2022-09-09T01:06:12;2.30;;;2.10;;
18140;SDS011;9196;49.194;12.526;2022-09-09T01:11:37;2.40;;;2.30;;
18140;SDS011;9196;49.194;12.526;2022-09-09T01:14:14;3.33;;;1.90;;
18140;SDS011;9196;49.194;12.526;2022-09-09T01:16:48;2.80;;;2.00;;
18140;SDS011;9196;49.194;12.526;2022-09-09T01:19:18;2.23;;;2.13;;
18140;SDS011;9196;49.194;12.526;2022-09-09T01:21:55;4.93;;;2.30;;
18140;SDS011;9196;49.194;12.526;2022-09-09T01:24:28;2.17;;;2.07;;
18140;SDS011;9196;49.194;12.526;2022-09-09T01:27:05;2.50;;;1.80;;
18140;SDS011;9196;49.194;12.526;2022-09-09T01:29:34;1.70;;;1.60;;
18140;SDS011;9196;49.194;12.526;2022-09-09T01:32:35;2.30;;;2.00;;
18140;SDS011;9196;49.194;12.526;2022-09-09T01:35:06;1.50;;;1.50;;
18140;SDS011;9196;49.194;12.526;2022-09-09T01:37:36;8.50;;;1.73;;
18140;SDS011;9196;49.194;12.526;2022-09-09T01:40:03;2.23;;;2.13;;
18140;SDS011;9196;49.194;12.526;2022-09-09T01:42:30;1.67;;;1.67;;
18140;SDS011;9196;49.194;12.526;2022-09-09T01:44:57;3.47;;;2.40;;
18140;SDS011;9196;49.194;12.526;2022-09-09T01:47:24;1.53;;;1.50;;
18140;SDS011;9196;49.194;12.526;2022-09-09T01:49:51;2.00;;;1.80;;
18140;SDS011;9196;49.194;12.526;2022-09-09T01:52:20;1.70;;;1.63;;
18140;SDS011;9196;49.194;12.526;2022-09-09T01:54:47;1.70;;;1.60;;
18140;SDS011;9196;49.194;12.526;2022-09-09T01:57:15;1.80;;;1.70;;
18140;SDS011;9196;49.194;12.526;2022-09-09T01:59:49;2.80;;;1.40;;
18140;SDS011;9196;49.194;12.526;2022-09-09T02:02:27;1.50;;;1.40;;
18140;SDS011;9196;49.194;12.526;2022-09-09T02:05:01;2.00;;;1.90;;
18140;SDS011;9196;49.194;12.526;2022-09-09T02:07:40;5.33;;;1.87;;
18140;SDS011;9196;49.194;12.526;2022-09-09T02:10:09;1.57;;;1.57;;
18140;SDS011;9196;49.194;12.526;2022-09-09T02:12:40;1.83;;;1.73;;
18140;SDS011;9196;49.194;12.526;2022-09-09T02:15:11;2.50;;;2.30;;
18140;SDS011;9196;49.194;12.526;2022-09-09T02:17:43;2.10;;;2.00;;
18140;SDS011;9196;49.194;12.526;2022-09-09T02:20:15;1.87;;;1.77;;
18140;SDS011;9196;49.194;12.526;2022-09-09T02:22:46;4.47;;;1.80;;
18140;SDS011;9196;49.194;12.526;2022-09-09T02:25:16;2.23;;;2.17;;
18140;SDS011;9196;49.194;12.526;2022-09-09T02:27:47;1.83;;;1.73;;
18140;SDS011;9196;49.194;12.526;2022-09-09T02:30:16;3.47;;;1.70;;
18140;SDS011;9196;49.194;12.526;2022-09-09T02:32:43;1.90;;;1.80;;
18140;SDS011;9196;49.194;12.526;2022-09-09T02:35:14;3.03;;;1.40;;
18140;SDS011;9196;49.194;12.526;2022-09-09T02:37:46;1.57;;;1.53;;
18140;SDS011;9196;49.194;12.526;2022-09-09T02:40:16;2.37;;;2.27;;
18140;SDS011;9196;49.194;12.526;2022-09-09T02:42:43;1.63;;;1.53;;
18140;SDS011;9196;49.194;12.526;2022-09-09T02:45:12;2.00;;;1.90;;
18140;SDS011;9196;49.194;12.526;2022-09-09T02:47:43;3.27;;;1.93;;
18140;SDS011;9196;49.194;12.526;2022-09-09T02:50:17;1.70;;;1.60;;
18140;SDS011;9196;49.194;12.526;2022-09-09T02:52:53;2.03;;;1.50;;
18140;SDS011;9196;49.194;12.526;2022-09-09T02:55:29;4.40;;;2.03;;
18140;SDS011;9196;49.194;12.526;2022-09-09T02:58:03;1.40;;;1.40;;
18140;SDS011;9196;49.194;12.526;2022-09-09T03:00:33;2.00;;;1.80;;
18140;SDS011;9196;49.194;12.526;2022-09-09T03:03:01;1.90;;;1.60;;
18140;SDS011;9196;49.194;12.526;2022-09-09T03:05:29;4.10;;;1.43;;
18140;SDS011;9196;49.194;12.526;2022-09-09T03:07:57;1.50;;;1.47;;
18140;SDS011;9196;49.194;12.526;2022-09-09T03:10:23;1.43;;;1.43;;
18140;SDS011;9196;49.194;12.526;2022-09-09T03:12:50;1.83;;;1.73;;
18140;SDS011;9196;49.194;12.526;2022-09-09T03:15:17;1.40;;;1.40;;
18140;SDS011;9196;49.194;12.526;2022-09-09T03:17:44;1.33;;;1.23;;
18140;SDS011;9196;49.194;12.526;2022-09-09T03:20:11;1.20;;;1.20;;
18140;SDS011;9196;49.194;12.526;2022-09-09T03:22:38;1.30;;;1.20;;
18140;SDS011;9196;49.194;12.526;2022-09-09T03:25:06;2.17;;;1.43;;
18140;SDS011;9196;49.194;12.526;2022-09-09T03:27:34;1.37;;;1.37;;
18140;SDS011;9196;49.194;12.526;2022-09-09T03:30:01;1.50;;;1.40;;
18140;SDS011;9196;49.194;12.526;2022-09-09T03:32:28;1.47;;;1.47;;
18140;SDS011;9196;49.194;12.526;2022-09-09T03:34:56;3.60;;;1.37;;
18140;SDS011;9196;49.194;12.526;2022-09-09T03:37:23;1.43;;;1.30;;
18140;SDS011;9196;49.194;12.526;2022-09-09T03:39:49;1.60;;;1.60;;
18140;SDS011;9196;49.194;12.526;2022-09-09T03:42:20;1.70;;;1.70;;
18140;SDS011;9196;49.194;12.526;2022-09-09T03:44:47;1.27;;;1.27;;
18140;SDS011;9196;49.194;12.526;2022-09-09T03:47:15;1.37;;;1.37;;
18140;SDS011;9196;49.194;12.526;2022-09-09T03:49:44;1.40;;;1.40;;
18140;SDS011;9196;49.194;12.526;2022-09-09T03:52:11;5.53;;;1.50;;
18140;SDS011;9196;49.194;12.526;2022-09-09T03:54:38;1.13;;;1.13;;
18140;SDS011;9196;49.194;12.526;2022-09-09T03:57:06;1.20;;;1.20;;
18140;SDS011;9196;49.194;12.526;2022-09-09T03:59:34;1.60;;;1.20;;
18140;SDS011;9196;49.194;12.526;2022-09-09T04:02:01;5.43;;;1.30;;
18140;SDS011;9196;49.194;12.526;2022-09-09T04:04:28;1.40;;;1.40;;
18140;SDS011;9196;49.194;12.526;2022-09-09T04:06:55;2.60;;;1.60;;
18140;SDS011;9196;49.194;12.526;2022-09-09T04:09:21;1.67;;;1.67;;
18140;SDS011;9196;49.194;12.526;2022-09-09T04:11:48;2.47;;;2.30;;
18140;SDS011;9196;49.194;12.526;2022-09-09T04:14:15;1.87;;;1.77;;
18140;SDS011;9196;49.194;12.526;2022-09-09T04:16:43;2.97;;;1.57;;
18140;SDS011;9196;49.194;12.526;2022-09-09T04:19:11;4.27;;;3.87;;
18140;SDS011;9196;49.194;12.526;2022-09-09T04:21:38;4.17;;;3.87;;
18140;SDS011;9196;49.194;12.526;2022-09-09T04:24:05;6.03;;;3.10;;
18140;SDS011;9196;49.194;12.526;2022-09-09T04:26:33;1.87;;;1.77;;
18140;SDS011;9196;49.194;12.526;2022-09-09T04:29:06;4.93;;;2.50;;
18140;SDS011;9196;49.194;12.526;2022-09-09T04:31:33;6.13;;;2.40;;
18140;SDS011;9196;49.194;12.526;2022-09-09T04:34:01;1.80;;;1.70;;
18140;SDS011;9196;49.194;12.526;2022-09-09T04:36:30;1.43;;;1.43;;
18140;SDS011;9196;49.194;12.526;2022-09-09T04:38:57;2.13;;;1.73;;
18140;SDS011;9196;49.194;12.526;2022-09-09T04:41:24;1.70;;;1.70;;
18140;SDS011;9196;49.194;12.526;2022-09-09T04:43:51;1.37;;;1.37;;
18140;SDS011;9196;49.194;12.526;2022-09-09T04:46:18;1.63;;;1.53;;
18140;SDS011;9196;49.194;12.526;2022-09-09T04:48:48;2.30;;;2.20;;
18140;SDS011;9196;49.194;12.526;2022-09-09T04:51:17;9.60;;;3.90;;
18140;SDS011;9196;49.194;12.526;2022-09-09T04:53:44;2.30;;;2.20;;
18140;SDS011;9196;49.194;12.526;2022-09-09T04:56:12;1.77;;;1.73;;
18140;SDS011;9196;49.194;12.526;2022-09-09T04:58:40;2.17;;;1.97;;
18140;SDS011;9196;49.194;12.526;2022-09-09T05:01:09;4.00;;;1.60;;
18140;SDS011;9196;49.194;12.526;2022-09-09T05:03:37;2.70;;;2.07;;
18140;SDS011;9196;49.194;12.526;2022-09-09T05:06:04;1.43;;;1.33;;
18140;SDS011;9196;49.194;12.526;2022-09-09T05:08:34;1.90;;;1.80;;
18140;SDS011;9196;49.194;12.526;2022-09-09T05:11:02;1.60;;;1.60;;
18140;SDS011;9196;49.194;12.526;2022-09-09T05:13:29;2.33;;;2.23;;
18140;SDS011;9196;49.194;12.526;2022-09-09T05:15:57;2.07;;;1.97;;
18140;SDS011;9196;49.194;12.526;2022-09-09T05:18:24;2.20;;;2.10;;
18140;SDS011;9196;49.194;12.526;2022-09-09T05:20:50;2.43;;;2.27;;
18140;SDS011;9196;49.194;12.526;2022-09-09T05:23:17;2.23;;;2.13;;
18140;SDS011;9196;49.194;12.526;2022-09-09T05:25:54;2.20;;;2.10;;
18140;SDS011;9196;49.194;12.526;2022-09-09T05:28:22;2.43;;;2.33;;
18140;SDS011;9196;49.194;12.526;2022-09-09T05:30:55;2.10;;;2.00;;
18140;SDS011;9196;49.194;12.526;2022-09-09T05:33:23;2.23;;;2.13;;
18140;SDS011;9196;49.194;12.526;2022-09-09T05:35:54;2.70;;;2.57;;
18140;SDS011;9196;49.194;12.526;2022-09-09T05:38:22;1.80;;;1.70;;
18140;SDS011;9196;49.194;12.526;2022-09-09T05:40:50;2.10;;;2.00;;
18140;SDS011;9196;49.194;12.526;2022-09-09T05:43:18;2.40;;;2.10;;
18140;SDS011;9196;49.194;12.526;2022-09-09T05:45:45;2.93;;;2.37;;
18140;SDS011;9196;49.194;12.526;2022-09-09T05:48:13;3.20;;;2.50;;
18140;SDS011;9196;49.194;12.526;2022-09-09T05:50:41;2.87;;;2.70;;
18140;SDS011;9196;49.194;12.526;2022-09-09T05:53:07;2.13;;;2.10;;
18140;SDS011;9196;49.194;12.526;2022-09-09T05:55:35;2.90;;;2.70;;
18140;SDS011;9196;49.194;12.526;2022-09-09T05:58:01;3.17;;;2.97;;
18140;SDS011;9196;49.194;12.526;2022-09-09T06:00:30;3.43;;;3.23;;
18140;SDS011;9196;49.194;12.526;2022-09-09T06:02:57;6.10;;;3.37;;
18140;SDS011;9196;49.194;12.526;2022-09-09T06:05:24;2.60;;;2.50;;
18140;SDS011;9196;49.194;12.526;2022-09-09T06:07:52;2.77;;;2.60;;
18140;SDS011;9196;49.194;12.526;2022-09-09T06:10:19;3.03;;;2.83;;
18140;SDS011;9196;49.194;12.526;2022-09-09T06:12:45;4.30;;;3.13;;
18140;SDS011;9196;49.194;12.526;2022-09-09T06:15:12;4.93;;;3.73;;
18140;SDS011;9196;49.194;12.526;2022-09-09T06:17:40;6.03;;;3.87;;
18140;SDS011;9196;49.194;12.526;2022-09-09T06:20:08;4.20;;;3.97;;
18140;SDS011;9196;49.194;12.526;2022-09-09T06:22:35;6.37;;;4.00;;
18140;SDS011;9196;49.194;12.526;2022-09-09T06:25:02;8.23;;;4.20;;
18140;SDS011;9196;49.194;12.526;2022-09-09T06:27:29;4.37;;;3.70;;
18140;SDS011;9196;49.194;12.526;2022-09-09T06:29:56;4.93;;;3.60;;
18140;SDS011;9196;49.194;12.526;2022-09-09T06:32:23;4.87;;;3.30;;
18140;SDS011;9196;49.194;12.526;2022-09-09T06:34:51;5.70;;;3.90;;
18140;SDS011;9196;49.194;12.526;2022-09-09T06:37:18;3.53;;;3.33;;
18140;SDS011;9196;49.194;12.526;2022-09-09T06:39:45;4.37;;;3.83;;
18140;SDS011;9196;49.194;12.526;2022-09-09T06:42:13;5.50;;;3.30;;
18140;SDS011;9196;49.194;12.526;2022-09-09T06:44:40;4.20;;;3.13;;
18140;SDS011;9196;49.194;12.526;2022-09-09T06:47:07;4.40;;;4.10;;
18140;SDS011;9196;49.194;12.526;2022-09-09T06:49:34;12.37;;;4.27;;
18140;SDS011;9196;49.194;12.526;2022-09-09T06:52:02;3.37;;;2.70;;
18140;SDS011;9196;49.194;12.526;2022-09-09T06:54:29;4.40;;;4.10;;
18140;SDS011;9196;49.194;12.526;2022-09-09T06:56:55;4.80;;;3.97;;
18140;SDS011;9196;49.194;12.526;2022-09-09T06:59:22;17.20;;;4.23;;
18140;SDS011;9196;49.194;12.526;2022-09-09T07:01:49;4.17;;;3.27;;
18140;SDS011;9196;49.194;12.526;2022-09-09T07:04:17;3.87;;;3.57;;
18140;SDS011;9196;49.194;12.526;2022-09-09T07:06:44;3.90;;;3.60;;
18140;SDS011;9196;49.194;12.526;2022-09-09T07:09:13;3.90;;;3.30;;
18140;SDS011;9196;49.194;12.526;2022-09-09T07:11:42;3.93;;;3.53;;
18140;SDS011;9196;49.194;12.526;2022-09-09T07:14:10;14.03;;;3.97;;
18140;SDS011;9196;49.194;12.526;2022-09-09T07:16:38;3.47;;;3.00;;
18140;SDS011;9196;49.194;12.526;2022-09-09T07:19:05;3.50;;;3.20;;
18140;SDS011;9196;49.194;12.526;2022-09-09T07:21:32;3.70;;;3.50;;
18140;SDS011;9196;49.194;12.526;2022-09-09T07:24:00;2.90;;;2.63;;
18140;SDS011;9196;49.194;12.526;2022-09-09T07:26:29;4.90;;;3.37;;
18140;SDS011;9196;49.194;12.526;2022-09-09T07:28:57;3.27;;;3.10;;
18140;SDS011;9196;49.194;12.526;2022-09-09T07:31:24;3.20;;;2.90;;
18140;SDS011;9196;49.194;12.526;2022-09-09T07:33:52;3.53;;;3.23;;
18140;SDS011;9196;49.194;12.526;2022-09-09T07:36:19;3.33;;;3.13;;
18140;SDS011;9196;49.194;12.526;2022-09-09T07:38:48;3.23;;;2.97;;
18140;SDS011;9196;49.194;12.526;2022-09-09T07:41:17;4.23;;;3.40;;
18140;SDS011;9196;49.194;12.526;2022-09-09T07:43:47;3.80;;;2.87;;
18140;SDS011;9196;49.194;12.526;2022-09-09T07:46:16;8.83;;;4.60;;
18140;SDS011;9196;49.194;12.526;2022-09-09T07:48:45;2.57;;;2.47;;
18140;SDS011;9196;49.194;12.526;2022-09-09T07:51:16;7.60;;;3.40;;
18140;SDS011;9196;49.194;12.526;2022-09-09T07:53:46;3.87;;;3.17;;
18140;SDS011;9196;49.194;12.526;2022-09-09T07:56:15;12.63;;;5.10;;
18140;SDS011;9196;49.194;12.526;2022-09-09T07:58:44;4.80;;;2.87;;
18140;SDS011;9196;49.194;12.526;2022-09-09T08:01:14;11.73;;;2.77;;
18140;SDS011;9196;49.194;12.526;2022-09-09T08:03:43;2.83;;;2.63;;
18140;SDS011;9196;49.194;12.526;2022-09-09T08:06:10;2.50;;;2.40;;
18140;SDS011;9196;49.194;12.526;2022-09-09T08:08:39;3.30;;;2.57;;
18140;SDS011;9196;49.194;12.526;2022-09-09T08:11:08;4.70;;;2.00;;
18140;SDS011;9196;49.194;12.526;2022-09-09T08:13:37;2.90;;;1.90;;
18140;SDS011;9196;49.194;12.526;2022-09-09T08:16:07;2.93;;;2.00;;
18140;SDS011;9196;49.194;12.526;2022-09-09T08:18:35;4.63;;;2.40;;
18140;SDS011;9196;49.194;12.526;2022-09-09T08:21:09;2.97;;;1.90;;
18140;SDS011;9196;49.194;12.526;2022-09-09T08:23:38;4.20;;;1.90;;
18140;SDS011;9196;49.194;12.526;2022-09-09T08:26:06;3.23;;;2.60;;
18140;SDS011;9196;49.194;12.526;2022-09-09T08:28:36;1.67;;;1.57;;
18140;SDS011;9196;49.194;12.526;2022-09-09T08:31:08;2.60;;;1.50;;
18140;SDS011;9196;49.194;12.526;2022-09-09T08:33:37;3.47;;;1.67;;
18140;SDS011;9196;49.194;12.526;2022-09-09T08:36:06;1.47;;;1.37;;
18140;SDS011;9196;49.194;12.526;2022-09-09T08:38:36;6.47;;;1.63;;
18140;SDS011;9196;49.194;12.526;2022-09-09T08:41:07;1.97;;;1.70;;
18140;SDS011;9196;49.194;12.526;2022-09-09T08:43:58;1.93;;;1.83;;
18140;SDS011;9196;49.194;12.526;2022-09-09T08:46:32;1.87;;;1.77;;
18140;SDS011;9196;49.194;12.526;2022-09-09T08:49:06;6.60;;;2.07;;
18140;SDS011;9196;49.194;12.526;2022-09-09T08:51:45;2.30;;;1.70;;
18140;SDS011;9196;49.194;12.526;2022-09-09T08:54:13;2.83;;;1.90;;
18140;SDS011;9196;49.194;12.526;2022-09-09T08:56:40;3.70;;;2.27;;
18140;SDS011;9196;49.194;12.526;2022-09-09T08:59:07;3.53;;;2.07;;
18140;SDS011;9196;49.194;12.526;2022-09-09T09:01:44;2.33;;;2.00;;
18140;SDS011;9196;49.194;12.526;2022-09-09T09:04:22;2.00;;;1.90;;
18140;SDS011;9196;49.194;12.526;2022-09-09T09:07:01;2.20;;;1.80;;
18140;SDS011;9196;49.194;12.526;2022-09-09T09:09:39;3.77;;;1.83;;
18140;SDS011;9196;49.194;12.526;2022-09-09T09:12:14;3.00;;;1.80;;
18140;SDS011;9196;49.194;12.526;2022-09-09T09:14:43;4.07;;;1.97;;
18140;SDS011;9196;49.194;12.526;2022-09-09T09:17:14;3.77;;;1.97;;
18140;SDS011;9196;49.194;12.526;2022-09-09T09:19:42;6.50;;;1.67;;
18140;SDS011;9196;49.194;12.526;2022-09-09T09:22:12;2.70;;;2.23;;
18140;SDS011;9196;49.194;12.526;2022-09-09T09:24:45;4.03;;;2.07;;
18140;SDS011;9196;49.194;12.526;2022-09-09T09:27:20;2.50;;;2.20;;
18140;SDS011;9196;49.194;12.526;2022-09-09T09:29:53;9.97;;;2.00;;
18140;SDS011;9196;49.194;12.526;2022-09-09T09:32:24;7.30;;;1.73;;
18140;SDS011;9196;49.194;12.526;2022-09-09T09:34:54;2.87;;;2.07;;
18140;SDS011;9196;49.194;12.526;2022-09-09T09:37:26;2.97;;;2.27;;
18140;SDS011;9196;49.194;12.526;2022-09-09T09:39:55;3.03;;;1.90;;
18140;SDS011;9196;49.194;12.526;2022-09-09T09:42:22;2.90;;;2.03;;
18140;SDS011;9196;49.194;12.526;2022-09-09T09:44:49;2.20;;;2.00;;
18140;SDS011;9196;49.194;12.526;2022-09-09T09:47:16;2.60;;;2.40;;
18140;SDS011;9196;49.194;12.526;2022-09-09T09:49:52;6.83;;;2.17;;
18140;SDS011;9196;49.194;12.526;2022-09-09T09:52:20;2.20;;;2.10;;
18140;SDS011;9196;49.194;12.526;2022-09-09T09:54:49;1.63;;;1.53;;
18140;SDS011;9196;49.194;12.526;2022-09-09T09:57:18;2.57;;;2.13;;
18140;SDS011;9196;49.194;12.526;2022-09-09T09:59:59;2.37;;;2.10;;
18140;SDS011;9196;49.194;12.526;2022-09-09T10:02:31;2.77;;;1.67;;
18140;SDS011;9196;49.194;12.526;2022-09-09T10:05:06;3.37;;;1.73;;
18140;SDS011;9196;49.194;12.526;2022-09-09T10:07:40;1.70;;;1.30;;
18140;SDS011;9196;49.194;12.526;2022-09-09T10:10:18;5.80;;;1.80;;
18140;SDS011;9196;49.194;12.526;2022-09-09T10:12:54;2.00;;;1.80;;
18140;SDS011;9196;49.194;12.526;2022-09-09T10:15:30;1.73;;;1.63;;
18140;SDS011;9196;49.194;12.526;2022-09-09T10:18:08;3.90;;;1.50;;
18140;SDS011;9196;49.194;12.526;2022-09-09T10:20:50;1.40;;;1.30;;
18140;SDS011;9196;49.194;12.526;2022-09-09T10:23:27;1.67;;;1.57;;
18140;SDS011;9196;49.194;12.526;2022-09-09T10:26:08;1.30;;;1.30;;
18140;SDS011;9196;49.194;12.526;2022-09-09T10:28:58;1.53;;;1.43;;
18140;SDS011;9196;49.194;12.526;2022-09-09T10:31:44;5.70;;;1.33;;
18140;SDS011;9196;49.194;12.526;2022-09-09T10:34:21;1.30;;;1.20;;
18140;SDS011;9196;49.194;12.526;2022-09-09T10:37:01;1.67;;;1.40;;
18140;SDS011;9196;49.194;12.526;2022-09-09T10:39:34;2.20;;;1.40;;
18140;SDS011;9196;49.194;12.526;2022-09-09T10:42:06;6.17;;;1.73;;
18140;SDS011;9196;49.194;12.526;2022-09-09T10:44:48;4.20;;;1.27;;
18140;SDS011;9196;49.194;12.526;2022-09-09T10:50:39;2.97;;;2.00;;
18140;SDS011;9196;49.194;12.526;2022-09-09T10:53:14;2.10;;;1.43;;
18140;SDS011;9196;49.194;12.526;2022-09-09T10:55:50;5.00;;;2.10;;
18140;SDS011;9196;49.194;12.526;2022-09-09T10:58:19;1.00;;;1.00;;
18140;SDS011;9196;49.194;12.526;2022-09-09T11:00:52;2.10;;;1.10;;
18140;SDS011;9196;49.194;12.526;2022-09-09T11:03:23;1.30;;;1.30;;
18140;SDS011;9196;49.194;12.526;2022-09-09T11:05:53;0.90;;;0.90;;
18140;SDS011;9196;49.194;12.526;2022-09-09T11:08:25;1.60;;;1.10;;
18140;SDS011;9196;49.194;12.526;2022-09-09T11:10:55;1.07;;;1.00;;
18140;SDS011;9196;49.194;12.526;2022-09-09T11:13:30;2.73;;;1.17;;
18140;SDS011;9196;49.194;12.526;2022-09-09T11:16:03;1.00;;;1.00;;
18140;SDS011;9196;49.194;12.526;2022-09-09T11:18:39;5.73;;;1.20;;
18140;SDS011;9196;49.194;12.526;2022-09-09T11:21:10;1.20;;;1.20;;
18140;SDS011;9196;49.194;12.526;2022-09-09T11:23:45;2.50;;;1.10;;
18140;SDS011;9196;49.194;12.526;2022-09-09T11:26:16;1.87;;;1.30;;
18140;SDS011;9196;49.194;12.526;2022-09-09T11:28:51;1.23;;;0.90;;
18140;SDS011;9196;49.194;12.526;2022-09-09T11:31:33;1.10;;;1.10;;
18140;SDS011;9196;49.194;12.526;2022-09-09T11:34:16;1.57;;;1.47;;
18140;SDS011;9196;49.194;12.526;2022-09-09T11:37:02;14.07;;;2.10;;
18140;SDS011;9196;49.194;12.526;2022-09-09T11:39:57;2.33;;;1.43;;
18140;SDS011;9196;49.194;12.526;2022-09-09T11:42:42;1.23;;;1.13;;
18140;SDS011;9196;49.194;12.526;2022-09-09T11:45:10;3.73;;;1.50;;
18140;SDS011;9196;49.194;12.526;2022-09-09T11:47:51;3.90;;;1.83;;
18140;SDS011;9196;49.194;12.526;2022-09-09T11:50:27;2.70;;;1.50;;
18140;SDS011;9196;49.194;12.526;2022-09-09T11:53:05;1.60;;;1.30;;
18140;SDS011;9196;49.194;12.526;2022-09-09T11:56:01;1.60;;;1.50;;
18140;SDS011;9196;49.194;12.526;2022-09-09T11:58:30;6.43;;;1.80;;
18140;SDS011;9196;49.194;12.526;2022-09-09T12:01:13;2.90;;;1.30;;
18140;SDS011;9196;49.194;12.526;2022-09-09T12:03:41;4.60;;;1.50;;
18140;SDS011;9196;49.194;12.526;2022-09-09T12:06:11;15.17;;;1.80;;
18140;SDS011;9196;49.194;12.526;2022-09-09T12:08:42;2.50;;;1.40;;
18140;SDS011;9196;49.194;12.526;2022-09-09T12:11:12;7.23;;;1.60;;
18140;SDS011;9196;49.194;12.526;2022-09-09T12:13:52;4.50;;;1.50;;
18140;SDS011;9196;49.194;12.526;2022-09-09T12:16:31;1.63;;;1.40;;
18140;SDS011;9196;49.194;12.526;2022-09-09T12:19:06;7.20;;;1.30;;
18140;SDS011;9196;49.194;12.526;2022-09-09T12:21:41;3.50;;;1.70;;
18140;SDS011;9196;49.194;12.526;2022-09-09T12:24:15;3.20;;;1.30;;
18140;SDS011;9196;49.194;12.526;2022-09-09T12:26:50;5.10;;;2.10;;
18140;SDS011;9196;49.194;12.526;2022-09-09T12:29:24;1.50;;;1.07;;
18140;SDS011;9196;49.194;12.526;2022-09-09T12:32:00;2.50;;;1.40;;
18140;SDS011;9196;49.194;12.526;2022-09-09T12:34:34;1.00;;;0.90;;
18140;SDS011;9196;49.194;12.526;2022-09-09T12:37:08;2.27;;;1.00;;
18140;SDS011;9196;49.194;12.526;2022-09-09T12:39:45;1.37;;;0.97;;
18140;SDS011;9196;49.194;12.526;2022-09-09T12:42:17;1.80;;;1.30;;
18140;SDS011;9196;49.194;12.526;2022-09-09T12:44:52;1.47;;;1.17;;
18140;SDS011;9196;49.194;12.526;2022-09-09T12:47:21;1.53;;;1.30;;
18140;SDS011;9196;49.194;12.526;2022-09-09T12:49:52;1.10;;;1.00;;
18140;SDS011;9196;49.194;12.526;2022-09-09T12:52:20;1.27;;;1.00;;
18140;SDS011;9196;49.194;12.526;2022-09-09T12:54:55;1.63;;;1.53;;
18140;SDS011;9196;49.194;12.526;2022-09-09T12:57:24;2.00;;;1.17;;
18140;SDS011;9196;49.194;12.526;2022-09-09T13:00:03;1.70;;;1.17;;
18140;SDS011;9196;49.194;12.526;2022-09-09T13:02:45;1.10;;;1.00;;
18140;SDS011;9196;49.194;12.526;2022-09-09T13:05:16;0.90;;;0.90;;
18140;SDS011;9196;49.194;12.526;2022-09-09T13:07:45;1.63;;;1.30;;
18140;SDS011;9196;49.194;12.526;2022-09-09T13:10:12;7.60;;;2.10;;
18140;SDS011;9196;49.194;12.526;2022-09-09T13:12:42;1.50;;;1.40;;
18140;SDS011;9196;49.194;12.526;2022-09-09T13:15:12;1.37;;;1.27;;
18140;SDS011;9196;49.194;12.526;2022-09-09T13:17:49;1.40;;;1.30;;
18140;SDS011;9196;49.194;12.526;2022-09-09T13:20:18;2.40;;;1.57;;
18140;SDS011;9196;49.194;12.526;2022-09-09T13:22:46;3.17;;;1.17;;
18140;SDS011;9196;49.194;12.526;2022-09-09T13:25:19;3.33;;;1.53;;
18140;SDS011;9196;49.194;12.526;2022-09-09T13:30:54;1.60;;;1.50;;
18140;SDS011;9196;49.194;12.526;2022-09-09T13:33:24;1.50;;;1.40;;
18140;SDS011;9196;49.194;12.526;2022-09-09T13:35:57;1.80;;;1.27;;
18140;SDS011;9196;49.194;12.526;2022-09-09T13:38:26;1.10;;;1.10;;
18140;SDS011;9196;49.194;12.526;2022-09-09T13:40:55;4.50;;;2.43;;
18140;SDS011;9196;49.194;12.526;2022-09-09T13:43:25;1.60;;;1.20;;
18140;SDS011;9196;49.194;12.526;2022-09-09T13:45:54;5.50;;;1.20;;
18140;SDS011;9196;49.194;12.526;2022-09-09T13:48:22;1.40;;;1.30;;
18140;SDS011;9196;49.194;12.526;2022-09-09T13:50:56;1.37;;;1.27;;
18140;SDS011;9196;49.194;12.526;2022-09-09T13:53:24;2.17;;;1.23;;
18140;SDS011;9196;49.194;12.526;2022-09-09T13:55:52;6.33;;;1.60;;
18140;SDS011;9196;49.194;12.526;2022-09-09T13:58:19;1.47;;;1.20;;
18140;SDS011;9196;49.194;12.526;2022-09-09T14:00:49;1.20;;;1.10;;
18140;SDS011;9196;49.194;12.526;2022-09-09T14:03:15;1.33;;;1.23;;
18140;SDS011;9196;49.194;12.526;2022-09-09T14:05:43;1.50;;;1.20;;
18140;SDS011;9196;49.194;12.526;2022-09-09T14:08:13;3.63;;;1.17;;
18140;SDS011;9196;49.194;12.526;2022-09-09T14:10:48;1.37;;;1.20;;
18140;SDS011;9196;49.194;12.526;2022-09-09T14:13:15;2.50;;;1.30;;
18140;SDS011;9196;49.194;12.526;2022-09-09T14:15:42;1.43;;;1.23;;
18140;SDS011;9196;49.194;12.526;2022-09-09T14:18:10;1.30;;;1.20;;
18140;SDS011;9196;49.194;12.526;2022-09-09T14:20:39;5.07;;;1.70;;
18140;SDS011;9196;49.194;12.526;2022-09-09T14:23:07;2.03;;;1.83;;
18140;SDS011;9196;49.194;12.526;2022-09-09T14:25:38;2.60;;;1.20;;
18140;SDS011;9196;49.194;12.526;2022-09-09T14:28:07;1.50;;;1.40;;
18140;SDS011;9196;49.194;12.526;2022-09-09T14:30:36;1.63;;;1.50;;
18140;SDS011;9196;49.194;12.526;2022-09-09T14:33:04;1.37;;;1.27;;
18140;SDS011;9196;49.194;12.526;2022-09-09T14:35:32;6.97;;;1.47;;
18140;SDS011;9196;49.194;12.526;2022-09-09T14:37:59;5.70;;;1.60;;
18140;SDS011;9196;49.194;12.526;2022-09-09T14:40:27;3.43;;;1.47;;
18140;SDS011;9196;49.194;12.526;2022-09-09T14:42:54;1.40;;;1.40;;
18140;SDS011;9196;49.194;12.526;2022-09-09T14:45:21;1.37;;;1.03;;
18140;SDS011;9196;49.194;12.526;2022-09-09T14:47:49;3.50;;;1.20;;
18140;SDS011;9196;49.194;12.526;2022-09-09T14:50:16;2.50;;;1.40;;
18140;SDS011;9196;49.194;12.526;2022-09-09T14:52:45;1.40;;;1.23;;
18140;SDS011;9196;49.194;12.526;2022-09-09T14:55:11;1.20;;;1.10;;
18140;SDS011;9196;49.194;12.526;2022-09-09T14:57:38;3.73;;;1.40;;
18140;SDS011;9196;49.194;12.526;2022-09-09T15:00:06;1.23;;;1.23;;
18140;SDS011;9196;49.194;12.526;2022-09-09T15:02:34;2.83;;;1.63;;
18140;SDS011;9196;49.194;12.526;2022-09-09T15:05:01;1.93;;;1.30;;
18140;SDS011;9196;49.194;12.526;2022-09-09T15:07:29;1.30;;;1.20;;
18140;SDS011;9196;49.194;12.526;2022-09-09T15:09:58;1.53;;;1.07;;
18140;SDS011;9196;49.194;12.526;2022-09-09T15:12:24;2.53;;;1.30;;
18140;SDS011;9196;49.194;12.526;2022-09-09T15:14:53;11.23;;;1.47;;
18140;SDS011;9196;49.194;12.526;2022-09-09T15:17:20;1.83;;;1.50;;
18140;SDS011;9196;49.194;12.526;2022-09-09T15:19:47;1.27;;;1.17;;